• Join FlightAware (Why Join?)
  • Login
  • US Flag 
05:05AM EST


 

Airport Tracker/Info


-or-


 

Live Flight TrackerFlight Track Log ✈ AAL963 ✈ 13-Jun-2013 ✈ KDFW - SBGR / GRU

Flight Track Log - Related Links

Times and Time Zones

All times are in EDT time to prevent confusion due to time zone crossing. See the AAL963 flight status page for this flight to view local times or setup timezone preferences in your user account.

Time Position Orientation Groundspeed Altitude Reporting Facility
EDT Latitude Longitude Course Direction KTS MPH feet Rate Location/Type
09:47PM 32.8650 -97.0300 179° South 179 206 1,900  Level FlightAware
09:48PM 32.8180 -97.0300 180° South 219 252 2,500 600 Climbing FlightAware
09:48PM 32.8050 -97.0300 180° South 234 269 2,600 1,200 Climbing FlightAware
09:49PM 32.7750 -97.0300 180° South 244 281 3,300 1,740 Climbing FlightAware
09:49PM 32.7400 -97.0300 180° South 249 287 4,300 1,860 Climbing FlightAware
09:50PM 32.7060 -97.0300 180° South 255 293 5,200 1,500 Climbing FlightAware
09:50PM 32.6670 -97.0120 159° South 274 315 5,900 1,620 Climbing FlightAware
09:51PM 32.6350 -96.9940 155° Southeast 272 313 6,900 1,980 Climbing FlightAware
09:51PM 32.6160 -96.9830 154° Southeast 276 318 7,400 1,500 Climbing FlightAware
09:52PM 32.5970 -96.9730 156° South 278 320 7,900 1,980 Climbing FlightAware
09:52PM 32.5530 -96.9510 157° South 275 316 9,200 2,040 Climbing FlightAware
09:53PM 32.5080 -96.9290 158° South 281 323 10,300 960 Climbing FlightAware
09:53PM 32.4470 -96.8970 156° South 334 384 10,600 1,080 Climbing FlightAware
09:54PM 32.3840 -96.8660 157° South 347 399 11,900 1,680 Climbing FlightAware
09:55PM 32.3240 -96.8350 156° South 363 418 13,000 1,080 Climbing FlightAware
09:55PM 32.3110 -96.8280 156° South 366 421 13,300 1,920 Climbing FlightAware
09:56PM 32.1696 -96.7727 162° South 388 447 16,000 2,760 Climbing FlightAware ADS-B
09:56PM 32.1577 -96.7704 171° South 391 450 16,200 2,160 Climbing FlightAware ADS-B
09:57PM 32.1486 -96.7694 175° South 395 455 16,400 1,980 Climbing FlightAware ADS-B
09:57PM 32.1362 -96.7692 179° South 398 458 16,600 1,620 Climbing FlightAware ADS-B
09:57PM 32.1094 -96.7728 186° South 406 467 17,000 1,740 Climbing FlightAware ADS-B
09:57PM 32.0804 -96.7826 196° South 410 472 17,500 1,740 Climbing FlightAware ADS-B
09:58PM 32.0035 -96.8080 196° South 418 481 18,700 1,740 Climbing FlightAware ADS-B
09:58PM 31.9448 -96.8048 177° South 418 481 19,600 1,800 Climbing FlightAware ADS-B
09:59PM 31.8787 -96.7946 173° South 421 484 20,700 1,740 Climbing FlightAware ADS-B
09:59PM 31.8199 -96.7858 173° South 429 494 21,500 1,680 Climbing FlightAware ADS-B
10:00PM 31.7523 -96.7760 173° South 434 499 22,500 1,620 Climbing FlightAware ADS-B
10:01PM 31.6909 -96.7669 173° South 438 504 23,300 1,560 Climbing FlightAware ADS-B
10:01PM 31.6190 -96.7550 172° South 441 507 24,300 1,380 Climbing FlightAware
10:02PM 31.4570 -96.7306 173° South 458 527 25,900 1,260 Climbing FlightAware ADS-B
10:03PM 31.4194 -96.7172 159° South 457 526 26,400 1,260 Climbing FlightAware ADS-B
10:03PM 31.3949 -96.7012 147° Southeast 458 527 26,600 840 Climbing FlightAware ADS-B
10:04PM 31.3216 -96.6088 130° Southeast 471 542 27,300 840 Climbing FlightAware ADS-B
10:04PM 31.2757 -96.5418 129° Southeast 480 552 27,800 960 Climbing FlightAware ADS-B
10:05PM 31.2269 -96.4708 129° Southeast 486 559 28,400 840 Climbing FlightAware ADS-B
10:05PM 31.1819 -96.4055 129° Southeast 493 567 28,800 840 Climbing FlightAware ADS-B
10:06PM 31.1399 -96.3409 127° Southeast 497 572 29,300 960 Climbing FlightAware ADS-B
10:06PM 31.0983 -96.2735 126° Southeast 502 578 29,800 960 Climbing FlightAware ADS-B
10:07PM 31.0155 -96.1387 126° Southeast 508 585 30,800 960 Climbing FlightAware ADS-B
10:09PM 30.8890 -95.9456 130° Southeast 515 593 32,300 1,020 Climbing FlightAware ADS-B
10:09PM 30.8619 -95.9129 134° Southeast 515 593 32,600 1,020 Climbing FlightAware ADS-B
10:10PM 30.8105 -95.8547 136° Southeast 516 594 33,100 960 Climbing FlightAware ADS-B
10:10PM 30.7582 -95.7960 136° Southeast 516 594 33,600 720 Climbing FlightAware ADS-B
10:12PM 30.5472 -95.5588 136° Southeast 520 598 35,000 420 Climbing FlightAware ADS-B
10:13PM 30.4415 -95.4404 136° Southeast 520 598 35,000  Level FlightAware ADS-B
10:14PM 30.3368 -95.3236 136° Southeast 520 598 35,000  Level FlightAware ADS-B
10:15PM 30.2315 -95.2063 136° Southeast 519 597 35,000  Level FlightAware ADS-B
10:17PM 30.0738 -95.0316 136° Southeast 519 597 35,000  Level FlightAware ADS-B
10:17PM 30.0218 -94.9743 136° Southeast 520 598 35,000  Level FlightAware ADS-B
10:18PM 29.9164 -94.8582 136° Southeast 521 600 35,000  Level FlightAware ADS-B
10:19PM 29.8638 -94.8004 136° Southeast 521 600 35,000  Level FlightAware ADS-B
10:20PM 29.7056 -94.6270 136° Southeast 521 600 35,000  Level FlightAware ADS-B
10:21PM 29.6521 -94.5685 136° Southeast 522 601 35,000  Level FlightAware ADS-B
10:21PM 29.5993 -94.5109 137° Southeast 522 601 35,000  Level FlightAware ADS-B
10:22PM 29.4921 -94.3943 137° Southeast 522 601 35,000  Level FlightAware ADS-B
10:23PM 29.4394 -94.3370 137° Southeast 521 600 35,000  Level FlightAware ADS-B
10:23PM 29.3866 -94.2798 137° Southeast 522 601 35,000  Level FlightAware ADS-B
10:24PM 29.3341 -94.2228 137° Southeast 521 600 35,000  Level FlightAware ADS-B
10:24PM 29.2809 -94.1649 136° Southeast 521 600 35,000  Level FlightAware ADS-B
10:25PM 29.2279 -94.1076 137° Southeast 520 598 35,000  Level FlightAware ADS-B
10:25PM 29.1741 -94.0496 137° Southeast 519 597 35,000  Level FlightAware ADS-B
10:26PM 29.1117 -93.9828 137° Southeast 518 596 35,000 360 Level Houston Center
10:27PM 29.0075 -93.8694 136° Southeast 517 595 35,600 540 Climbing Houston Center
10:28PM 28.9133 -93.7722 138° Southeast 512 589 36,200 600 Climbing Houston Center
10:29PM 28.7947 -93.6419 136° Southeast 531 611 36,900 300 Climbing Houston Center
10:30PM 28.6797 -93.5183 137° Southeast 525 604 36,900  Level Houston Center
10:31PM 28.5817 -93.4147 137° Southeast 525 604 37,000  Climbing Houston Center
10:32PM 28.4758 -93.3008 137° Southeast 524 603 37,000  Level Houston Center
10:33PM 28.3619 -93.1797 137° Southeast 521 600 37,000  Level Houston Center
10:34PM 28.2558 -93.0692 137° Southeast 519 597 37,000  Level Houston Center
10:35PM 28.1506 -92.9581 137° Southeast 518 596 37,000  Level Houston Center
10:36PM 28.0458 -92.8472 137° Southeast 517 595 37,000 -60 Level Houston Center
10:37PM 27.9408 -92.7383 137° Southeast 513 590 36,900 -60 Descending Houston Center
10:38PM 27.8361 -92.6297 137° Southeast 512 589 36,900  Level Houston Center
10:39PM 27.7308 -92.5225 138° Southeast 509 586 37,000  Climbing Houston Center
10:40PM 27.6267 -92.4142 137° Southeast 509 586 37,000  Level Houston Center
10:41PM 27.5022 -92.2856 137° Southeast 507 583 37,000  Level Houston Center
10:42PM 27.3986 -92.1800 138° Southeast 503 579 37,000  Level Houston Center
10:43PM 27.2950 -92.0728 137° Southeast 504 580 37,000  Level Houston Center
10:44PM 27.1914 -91.9656 137° Southeast 507 583 37,000  Level Houston Center
10:46PM 27.0793 -91.8633 144° Southeast  Level FlightAware Approximate
10:53PM 26.3273 -91.2654 145° Southeast  Level FlightAware Approximate
10:54PM 26.2197 -91.1806 145° Southeast  Level FlightAware Approximate
10:55PM 26.1121 -91.0959 145° Southeast  Level FlightAware Approximate
10:56PM 26.0044 -91.0114 145° Southeast  Level FlightAware Approximate
10:57PM 25.8967 -90.9270 145° Southeast  Level FlightAware Approximate
10:58PM 25.7889 -90.8428 145° Southeast  Level FlightAware Approximate
10:59PM 25.6811 -90.7587 145° Southeast  Level FlightAware Approximate
11:00PM 25.5732 -90.6748 145° Southeast  Level FlightAware Approximate
11:01PM 25.4653 -90.5910 145° Southeast  Level FlightAware Approximate
11:02PM 25.3573 -90.5074 145° Southeast  Level FlightAware Approximate
11:03PM 25.2493 -90.4239 145° Southeast  Level FlightAware Approximate
11:04PM 25.1412 -90.3406 145° Southeast  Level FlightAware Approximate
11:05PM 25.0331 -90.2574 145° Southeast  Level FlightAware Approximate
11:06PM 24.9249 -90.1744 145° Southeast  Level FlightAware Approximate
11:07PM 24.8167 -90.0915 145° Southeast  Level FlightAware Approximate
11:08PM 24.7085 -90.0088 145° Southeast  Level FlightAware Approximate
11:09PM 24.6001 -89.9262 145° Southeast  Level FlightAware Approximate
11:09PM 24.3070 -89.7050 138° Southeast 511 588 37,000  Level FlightAware
11:10PM 24.4926 -89.8426 138° Southeast  Level FlightAware Approximate
11:10PM 24.2310 -89.6470 145° Southeast 511 588 37,000  Level FlightAware
11:11PM 24.1330 -89.5730 145° Southeast 511 588 37,000  Level FlightAware
11:12PM 24.0230 -89.4910 146° Southeast 512 589 37,000  Level FlightAware
11:13PM 23.9170 -89.4120 146° Southeast 513 590 37,000  Level FlightAware
11:13PM 23.8460 -89.3580 145° Southeast 513 590 37,000  Level FlightAware
11:14PM 23.7510 -89.2870 146° Southeast 514 592 37,000  Level FlightAware
11:15PM 23.6710 -89.2270 146° Southeast 515 593 37,000  Level FlightAware
11:16PM 23.5860 -89.1630 145° Southeast 516 594 37,000  Level FlightAware
11:16PM 23.5090 -89.1050 145° Southeast 517 595 37,000  Level FlightAware
11:17PM 23.4190 -89.0380 146° Southeast 517 595 37,000  Level FlightAware
11:18PM 23.3400 -88.9790 146° Southeast 516 594 37,000  Level FlightAware
11:18PM 23.2540 -88.9150 146° Southeast 516 594 37,000  Level FlightAware
11:19PM 23.1750 -88.8560 146° Southeast 515 593 37,000  Level FlightAware
11:20PM 23.0970 -88.7980 146° Southeast 515 593 37,000  Level FlightAware
11:20PM 23.0000 -88.7270 146° Southeast 514 592 37,000  Level FlightAware
11:21PM 22.9230 -88.6690 145° Southeast 513 590 37,000  Level FlightAware
11:22PM 22.8450 -88.6110 146° Southeast 512 589 37,000  Level FlightAware
11:23PM 22.7560 -88.5460 146° Southeast 513 590 37,000  Level FlightAware
11:23PM 22.6830 -88.4920 146° Southeast 513 590 37,000  Level FlightAware
11:24PM 22.6020 -88.4290 144° Southeast 513 590 37,000  Level FlightAware
11:25PM 22.5280 -88.3590 139° Southeast 514 592 37,000  Level FlightAware
11:26PM 22.4100 -88.2390 137° Southeast 514 592 37,000  Level FlightAware
11:27PM 22.3230 -88.1510 137° Southeast 513 590 37,000  Level FlightAware
11:27PM 22.2600 -88.0870 137° Southeast 514 592 37,000  Level FlightAware
11:28PM 22.1840 -88.0090 136° Southeast 513 590 37,000  Level FlightAware
11:29PM 22.1100 -87.9350 137° Southeast 513 590 37,000  Level FlightAware
11:29PM 22.0350 -87.8590 137° Southeast 513 590 37,000  Level FlightAware
11:30PM 21.9230 -87.7470 137° Southeast 515 593 37,000  Level FlightAware
11:30PM 21.8680 -87.6910 137° Southeast 516 594 37,000  Level FlightAware
11:31PM 21.8050 -87.6280 137° Southeast 517 595 37,000  Level FlightAware
11:32PM 21.7380 -87.5620 138° Southeast 518 596 37,000  Level FlightAware
11:33PM 21.6570 -87.4820 137° Southeast 517 595 37,000  Level FlightAware
11:33PM 21.5880 -87.4130 137° Southeast 517 595 37,000  Level FlightAware
11:34PM 21.4950 -87.3210 137° Southeast 517 595 37,000  Level FlightAware
11:35PM 21.4250 -87.2520 137° Southeast 515 593 37,000  Level FlightAware
11:35PM 21.3480 -87.1760 137° Southeast 515 593 37,000  Level FlightAware
11:36PM 21.2810 -87.1100 137° Southeast 516 594 37,000  Level FlightAware
11:37PM 21.2020 -87.0330 138° Southeast 516 594 37,000  Level FlightAware
11:37PM 21.1290 -86.9610 137° Southeast 516 594 37,000  Level FlightAware
11:38PM 21.0610 -86.8940 137° Southeast 515 593 37,000  Level FlightAware
11:39PM 20.9780 -86.8130 138° Southeast 516 594 37,000  Level FlightAware
11:40PM 20.9080 -86.7450 138° Southeast 514 592 37,000  Level FlightAware
11:40PM 20.8290 -86.6690 138° Southeast 513 590 37,000  Level FlightAware
11:41PM 20.7590 -86.6010 138° Southeast 513 590 37,000  Level FlightAware
11:42PM 20.6930 -86.5370 138° Southeast 512 589 37,000  Level FlightAware
11:42PM 20.6110 -86.4570 138° Southeast 511 588 37,000  Level FlightAware
11:43PM 20.5390 -86.3870 138° Southeast 509 586 37,000  Level FlightAware
11:44PM 20.4540 -86.3050 138° Southeast 508 585 37,000  Level FlightAware
11:45PM 20.3770 -86.2280 137° Southeast 508 585 37,000  Level FlightAware
11:46PM 20.3050 -86.1570 137° Southeast 508 585 37,000  Level FlightAware
11:46PM 20.1970 -86.0590 140° Southeast 506 582 37,000  Level FlightAware
11:47PM 20.1200 -85.9850 138° Southeast 506 582 37,000  Level FlightAware
11:48PM 20.0530 -85.9210 138° Southeast 506 582 37,000  Level FlightAware
11:48PM 19.9690 -85.8410 138° Southeast 508 585 37,000  Level FlightAware
11:49PM 19.9020 -85.7780 139° Southeast 508 585 37,000  Level FlightAware
11:50PM 19.8330 -85.7130 138° Southeast 509 586 37,000  Level FlightAware
11:51PM 19.7480 -85.6330 138° Southeast 511 588 37,000  Level FlightAware
11:51PM 19.6870 -85.5760 139° Southeast 512 589 37,000  Level FlightAware
11:52PM 19.6110 -85.5040 138° Southeast 512 589 37,000  Level FlightAware
11:53PM 19.5240 -85.4230 139° Southeast 512 589 37,000  Level FlightAware
11:53PM 19.4520 -85.3550 138° Southeast 512 589 37,000  Level FlightAware
11:54PM 19.3780 -85.2860 139° Southeast 513 590 37,000  Level FlightAware
11:55PM 19.3070 -85.2190 138° Southeast 513 590 37,000  Level FlightAware
11:56PM 19.2240 -85.1420 139° Southeast 512 589 37,000  Level FlightAware
11:56PM 19.1500 -85.0710 138° Southeast 512 589 37,000  Level FlightAware
11:57PM 19.0940 -85.0180 138° Southeast 512 589 37,000  Level FlightAware
11:58PM 19.0240 -84.9510 138° Southeast 512 589 37,000  Level FlightAware
11:58PM 18.9690 -84.8980 138° Southeast 512 589 37,000  Level FlightAware
11:59PM 18.8760 -84.8100 138° Southeast 512 589 37,000  Level FlightAware
12:00AM 18.7900 -84.7290 138° Southeast 512 589 37,000  Level FlightAware
12:01AM 18.7370 -84.6780 138° Southeast 512 589 37,000  Level FlightAware
12:02AM 18.6660 -84.6110 138° Southeast 512 589 37,000  Level FlightAware
12:02AM 18.6120 -84.5600 138° Southeast 512 589 37,000  Level FlightAware
12:03AM 18.5410 -84.4910 137° Southeast 512 589 37,000  Level FlightAware
12:04AM 18.4840 -84.4370 138° Southeast 512 589 37,000  Level FlightAware
12:04AM 18.4280 -84.3850 139° Southeast 512 589 37,000  Level FlightAware
12:07AM 18.2940 -84.1377 125° Southeast  Level FlightAware Approximate
12:08AM 18.2189 -84.0237 125° Southeast  Level FlightAware Approximate
12:09AM 18.1438 -83.9097 125° Southeast  Level FlightAware Approximate
12:10AM 18.0686 -83.7959 125° Southeast  Level FlightAware Approximate
12:11AM 17.9934 -83.6821 125° Southeast  Level FlightAware Approximate
12:12AM 17.9101 -83.5755 135° Southeast  Level FlightAware Approximate
12:13AM 17.8161 -83.4785 135° Southeast  Level FlightAware Approximate
12:14AM 17.7221 -83.3816 136° Southeast  Level FlightAware Approximate
12:15AM 17.6280 -83.2847 136° Southeast  Level FlightAware Approximate
12:16AM 17.5338 -83.1880 136° Southeast  Level FlightAware Approximate
12:17AM 17.4396 -83.0914 136° Southeast  Level FlightAware Approximate
12:18AM 17.3443 -82.9962 139° Southeast  Level FlightAware Approximate
12:19AM 17.2450 -82.9054 139° Southeast  Level FlightAware Approximate
12:20AM 17.1457 -82.8148 139° Southeast  Level FlightAware Approximate
12:21AM 17.0464 -82.7242 139° Southeast  Level FlightAware Approximate
12:22AM 16.9470 -82.6337 139° Southeast  Level FlightAware Approximate
12:23AM 16.8475 -82.5434 139° Southeast  Level FlightAware Approximate
12:24AM 16.7481 -82.4531 139° Southeast  Level FlightAware Approximate
12:25AM 16.6486 -82.3629 139° Southeast  Level FlightAware Approximate
12:26AM 16.5490 -82.2728 139° Southeast  Level FlightAware Approximate
12:27AM 16.4495 -82.1828 134° Southeast  Level FlightAware Approximate
12:28AM 16.3585 -82.0834 134° Southeast  Level FlightAware Approximate
12:29AM 16.2675 -81.9842 134° Southeast  Level FlightAware Approximate
12:30AM 16.1764 -81.8850 134° Southeast  Level FlightAware Approximate
12:31AM 16.0853 -81.7860 134° Southeast  Level FlightAware Approximate
12:32AM 15.9941 -81.6870 134° Southeast  Level FlightAware Approximate
12:33AM 15.9029 -81.5881 134° Southeast  Level FlightAware Approximate
12:34AM 15.8116 -81.4893 134° Southeast  Level FlightAware Approximate
12:35AM 15.7203 -81.3906 134° Southeast  Level FlightAware Approximate
12:36AM 15.6289 -81.2920 134° Southeast  Level FlightAware Approximate
12:37AM 15.5375 -81.1934 134° Southeast  Level FlightAware Approximate
12:38AM 15.4461 -81.0950 134° Southeast  Level FlightAware Approximate
12:39AM 15.3546 -80.9966 134° Southeast  Level FlightAware Approximate
12:40AM 15.2630 -80.8984 134° Southeast  Level FlightAware Approximate
12:41AM 15.1707 -80.7993 134° Southeast  Level FlightAware Approximate
12:42AM 15.0782 -80.7003 134° Southeast  Level FlightAware Approximate
12:43AM 14.9838 -80.6037 142° Southeast  Level FlightAware Approximate
12:44AM 14.8788 -80.5194 142° Southeast  Level FlightAware Approximate
12:45AM 14.7737 -80.4352 142° Southeast  Level FlightAware Approximate
12:46AM 14.6686 -80.3511 142° Southeast  Level FlightAware Approximate
12:47AM 14.5634 -80.2671 142° Southeast  Level FlightAware Approximate
12:48AM 14.4582 -80.1832 142° Southeast  Level FlightAware Approximate
12:49AM 14.3532 -80.0990 142° Southeast  Level FlightAware Approximate
12:50AM 14.2482 -80.0149 142° Southeast  Level FlightAware Approximate
12:51AM 14.1433 -79.9308 142° Southeast  Level FlightAware Approximate
12:52AM 14.0382 -79.8467 142° Southeast  Level FlightAware Approximate
12:53AM 13.9332 -79.7628 142° Southeast  Level FlightAware Approximate
12:54AM 13.8281 -79.6789 142° Southeast  Level FlightAware Approximate
12:55AM 13.7230 -79.5951 142° Southeast  Level FlightAware Approximate
12:56AM 13.6179 -79.5114 142° Southeast  Level FlightAware Approximate
12:57AM 13.5128 -79.4278 142° Southeast  Level FlightAware Approximate
12:58AM 13.4076 -79.3442 142° Southeast  Level FlightAware Approximate
12:59AM 13.3024 -79.2607 142° Southeast  Level FlightAware Approximate
01:00AM 13.1971 -79.1773 142° Southeast  Level FlightAware Approximate
01:01AM 13.0919 -79.0939 142° Southeast  Level FlightAware Approximate
01:02AM 12.9866 -79.0106 142° Southeast  Level FlightAware Approximate
01:03AM 12.8813 -78.9274 142° Southeast  Level FlightAware Approximate
01:04AM 12.7759 -78.8443 142° Southeast  Level FlightAware Approximate
01:05AM 12.6706 -78.7612 142° Southeast  Level FlightAware Approximate
01:06AM 12.5652 -78.6782 142° Southeast  Level FlightAware Approximate
01:07AM 12.4598 -78.5953 142° Southeast  Level FlightAware Approximate
01:08AM 12.3543 -78.5124 142° Southeast  Level FlightAware Approximate
01:09AM 12.2488 -78.4296 143° Southeast  Level FlightAware Approximate
01:10AM 12.1433 -78.3469 143° Southeast  Level FlightAware Approximate
01:11AM 12.0378 -78.2642 143° Southeast  Level FlightAware Approximate
01:12AM 11.9323 -78.1816 143° Southeast  Level FlightAware Approximate
01:12AM 11.4930 -77.8300 143° Southeast 464 534 37,000  Level FlightAware
01:13AM 11.8267 -78.0991 143° Southeast  Level FlightAware Approximate
01:13AM 11.4200 -77.7730 143° Southeast 463 533 37,000  Level FlightAware
01:14AM 11.3230 -77.6990 143° Southeast 462 532 37,000  Level FlightAware
01:14AM 11.2690 -77.6560 142° Southeast 461 531 37,000  Level FlightAware
01:15AM 11.2120 -77.6100 142° Southeast 461 531 37,000  Level FlightAware
01:16AM 11.1480 -77.5590 142° Southeast 461 531 37,000  Level FlightAware
01:17AM 11.0620 -77.4910 142° Southeast 461 531 37,000  Level FlightAware
01:17AM 10.9420 -77.4000 143° Southeast 453 521 37,000  Level FlightAware
01:18AM 10.8790 -77.3430 138° Southeast 458 527 37,000  Level FlightAware
01:19AM 10.7870 -77.2570 137° Southeast 460 529 37,000  Level FlightAware
01:20AM 10.7080 -77.1820 137° Southeast 459 528 37,000  Level FlightAware
01:21AM 10.6590 -77.1360 137° Southeast 459 528 37,000  Level FlightAware
01:21AM 10.5690 -77.0530 138° Southeast 456 525 37,000  Level FlightAware
01:22AM 10.5070 -76.9950 137° Southeast 455 524 37,000  Level FlightAware
01:23AM 10.4430 -76.9360 138° Southeast 455 524 37,000  Level FlightAware
01:24AM 10.3480 -76.8470 137° Southeast 455 524 37,000  Level FlightAware
01:24AM 10.2860 -76.7900 138° Southeast 448 516 37,000  Level FlightAware
01:25AM 10.2240 -76.7330 138° Southeast 448 516 37,000  Level FlightAware
01:26AM 10.1620 -76.6750 137° Southeast 455 524 37,000  Level FlightAware
01:26AM 10.0940 -76.6120 138° Southeast 455 524 37,000  Level FlightAware
01:27AM 10.0300 -76.5530 138° Southeast 447 514 37,000  Level FlightAware
01:28AM 9.9680 -76.4960 138° Southeast 447 514 37,000  Level FlightAware
01:28AM 9.9010 -76.4340 138° Southeast 454 522 37,000  Level FlightAware
01:29AM 9.8290 -76.3660 137° Southeast 447 514 37,000  Level FlightAware
01:30AM 9.7680 -76.3100 138° Southeast 447 514 37,000  Level FlightAware
01:31AM 9.7280 -76.2730 138° Southeast 455 524 37,000  Level FlightAware
01:31AM 9.6420 -76.1940 138° Southeast 455 524 37,000  Level FlightAware
01:32AM 9.5640 -76.1220 138° Southeast 455 524 37,000  Level FlightAware
01:33AM 9.5230 -76.0840 138° Southeast 455 524 37,000  Level FlightAware
01:33AM 9.4580 -76.0220 137° Southeast 455 524 37,000  Level FlightAware
01:34AM 9.4110 -75.9770 137° Southeast 455 524 37,000  Level FlightAware
01:35AM 9.3470 -75.9170 137° Southeast 455 524 37,000  Level FlightAware
01:35AM 9.3020 -75.8750 137° Southeast 455 524 37,000  Level FlightAware
01:36AM 9.1780 -75.7660 139° Southeast 458 527 37,000  Level FlightAware
01:37AM 9.1190 -75.7110 137° Southeast 458 527 37,000  Level FlightAware
01:38AM 9.0390 -75.6350 137° Southeast 458 527 37,000  Level FlightAware
01:39AM 8.9530 -75.5600 139° Southeast 461 531 37,000  Level FlightAware
01:39AM 8.8820 -75.4940 137° Southeast 462 532 37,000  Level FlightAware
01:40AM 8.8180 -75.4360 138° Southeast 463 533 37,000  Level FlightAware
01:41AM 8.7560 -75.3790 138° Southeast 464 534 37,000  Level FlightAware
01:42AM 8.6660 -75.2970 138° Southeast 465 535 37,000  Level FlightAware
01:42AM 8.6580 -75.2900 139° Southeast 465 535 37,000  Level FlightAware
01:43AM 8.6050 -75.2420 138° Southeast 465 535 37,000  Level FlightAware
01:44AM 8.5390 -75.1810 138° Southeast 465 535 37,000  Level FlightAware
01:44AM 8.4900 -75.1360 138° Southeast 465 535 37,000  Level FlightAware
01:45AM 8.4210 -75.0730 138° Southeast 465 535 37,000  Level FlightAware
01:46AM 8.3720 -75.0290 138° Southeast 465 535 37,000  Level FlightAware
01:46AM 8.3210 -74.9830 138° Southeast 465 535 37,000  Level FlightAware
01:47AM 8.2590 -74.9260 138° Southeast 465 535 37,000  Level FlightAware
01:48AM 8.2030 -74.8750 138° Southeast 465 535 37,000  Level FlightAware
01:49AM 8.1410 -74.8190 138° Southeast 465 535 37,000  Level FlightAware
01:49AM 8.0780 -74.7620 138° Southeast 465 535 37,000  Level FlightAware
01:51AM 7.9650 -74.6590 138° Southeast 465 535 37,000  Level FlightAware
01:51AM 7.9160 -74.6150 138° Southeast 465 535 37,000  Level FlightAware
01:54AM 7.6946 -74.4188 138° Southeast  Level FlightAware Approximate
01:55AM 7.5961 -74.3287 138° Southeast  Level FlightAware Approximate
01:56AM 7.4976 -74.2387 138° Southeast  Level FlightAware Approximate
01:57AM 7.3990 -74.1487 138° Southeast  Level FlightAware Approximate
01:58AM 7.3005 -74.0587 138° Southeast  Level FlightAware Approximate
01:59AM 7.2019 -73.9688 138° Southeast  Level FlightAware Approximate
02:00AM 7.1034 -73.8790 138° Southeast  Level FlightAware Approximate
02:01AM 7.0027 -73.7924 152° Southeast  Level FlightAware Approximate
02:02AM 6.8860 -73.7289 152° Southeast  Level FlightAware Approximate
02:03AM 6.7692 -73.6655 152° Southeast  Level FlightAware Approximate
02:04AM 6.6524 -73.6020 152° Southeast  Level FlightAware Approximate
02:05AM 6.5356 -73.5386 152° Southeast  Level FlightAware Approximate
02:06AM 6.4189 -73.4752 152° Southeast  Level FlightAware Approximate
02:07AM 6.3021 -73.4119 152° Southeast  Level FlightAware Approximate
02:08AM 6.1852 -73.3486 152° Southeast  Level FlightAware Approximate
02:09AM 6.0684 -73.2853 152° Southeast  Level FlightAware Approximate
02:10AM 5.9516 -73.2220 152° Southeast  Level FlightAware Approximate
02:11AM 5.8348 -73.1588 152° Southeast  Level FlightAware Approximate
02:12AM 5.7179 -73.0956 152° Southeast  Level FlightAware Approximate
02:13AM 5.6011 -73.0324 152° Southeast  Level FlightAware Approximate
02:14AM 5.4843 -72.9692 152° Southeast  Level FlightAware Approximate
02:15AM 5.3674 -72.9061 152° Southeast  Level FlightAware Approximate
02:16AM 5.2505 -72.8430 152° Southeast  Level FlightAware Approximate
02:17AM 5.1337 -72.7799 152° Southeast  Level FlightAware Approximate
02:18AM 5.0168 -72.7168 152° Southeast  Level FlightAware Approximate
02:19AM 4.8999 -72.6538 152° Southeast  Level FlightAware Approximate
02:20AM 4.7830 -72.5908 152° Southeast  Level FlightAware Approximate
02:21AM 4.6661 -72.5277 152° Southeast  Level FlightAware Approximate
02:22AM 4.5492 -72.4648 152° Southeast  Level FlightAware Approximate
02:23AM 4.4323 -72.4018 152° Southeast  Level FlightAware Approximate
02:24AM 4.3154 -72.3389 152° Southeast  Level FlightAware Approximate
02:25AM 4.1985 -72.2759 152° Southeast  Level FlightAware Approximate
02:26AM 4.0816 -72.2131 152° Southeast  Level FlightAware Approximate
02:27AM 3.9646 -72.1502 152° Southeast  Level FlightAware Approximate
02:28AM 3.8539 -72.0773 145° Southeast  Level FlightAware Approximate
02:29AM 3.7454 -72.0007 145° Southeast  Level FlightAware Approximate
02:30AM 3.6369 -71.9242 145° Southeast  Level FlightAware Approximate
02:31AM 3.5286 -71.8478 145° Southeast  Level FlightAware Approximate
02:32AM 3.4203 -71.7714 145° Southeast  Level FlightAware Approximate
02:33AM 3.3120 -71.6951 145° Southeast  Level FlightAware Approximate
02:34AM 3.2036 -71.6188 145° Southeast  Level FlightAware Approximate
02:35AM 3.0953 -71.5424 145° Southeast  Level FlightAware Approximate
02:36AM 2.9870 -71.4661 145° Southeast  Level FlightAware Approximate
02:37AM 2.8786 -71.3899 145° Southeast  Level FlightAware Approximate
02:38AM 2.7703 -71.3136 145° Southeast  Level FlightAware Approximate
02:39AM 2.6619 -71.2374 145° Southeast  Level FlightAware Approximate
02:40AM 2.5535 -71.1611 145° Southeast  Level FlightAware Approximate
02:41AM 2.4452 -71.0849 145° Southeast  Level FlightAware Approximate
02:42AM 2.3368 -71.0087 145° Southeast  Level FlightAware Approximate
02:43AM 2.2284 -70.9325 145° Southeast  Level FlightAware Approximate
02:44AM 2.1200 -70.8563 145° Southeast  Level FlightAware Approximate
02:45AM 2.0117 -70.7801 145° Southeast  Level FlightAware Approximate
02:46AM 1.9033 -70.7039 145° Southeast  Level FlightAware Approximate
02:47AM 1.7949 -70.6278 145° Southeast  Level FlightAware Approximate
02:48AM 1.6865 -70.5516 145° Southeast  Level FlightAware Approximate
02:49AM 1.5781 -70.4754 145° Southeast  Level FlightAware Approximate
02:50AM 1.4697 -70.3993 145° Southeast  Level FlightAware Approximate
02:51AM 1.3613 -70.3232 145° Southeast  Level FlightAware Approximate
02:52AM 1.2529 -70.2471 145° Southeast  Level FlightAware Approximate
02:53AM 1.1522 -70.1611 138° Southeast  Level FlightAware Approximate
02:54AM 1.0533 -70.0730 138° Southeast  Level FlightAware Approximate
02:55AM 0.9544 -69.9849 138° Southeast  Level FlightAware Approximate
02:56AM 0.8555 -69.8968 138° Southeast  Level FlightAware Approximate
02:57AM 0.7566 -69.8087 138° Southeast  Level FlightAware Approximate
02:58AM 0.6576 -69.7207 138° Southeast  Level FlightAware Approximate
02:59AM 0.5587 -69.6326 138° Southeast  Level FlightAware Approximate
03:00AM 0.4598 -69.5445 138° Southeast  Level FlightAware Approximate
03:01AM 0.3608 -69.4564 138° Southeast  Level FlightAware Approximate
03:02AM 0.2619 -69.3684 138° Southeast  Level FlightAware Approximate
03:03AM 0.1630 -69.2803 138° Southeast  Level FlightAware Approximate
03:04AM 0.0640 -69.1922 138° Southeast  Level FlightAware Approximate
03:05AM -0.0349 -69.1042 138° Southeast  Level FlightAware Approximate
03:06AM -0.1338 -69.0161 138° Southeast  Level FlightAware Approximate
03:07AM -0.2327 -68.9280 138° Southeast  Level FlightAware Approximate
03:08AM -0.3317 -68.8400 138° Southeast  Level FlightAware Approximate
03:09AM -0.4306 -68.7519 138° Southeast  Level FlightAware Approximate
03:10AM -0.5295 -68.6638 138° Southeast  Level FlightAware Approximate
03:11AM -0.6285 -68.5757 138° Southeast  Level FlightAware Approximate
03:12AM -0.7274 -68.4876 138° Southeast  Level FlightAware Approximate
03:13AM -0.8263 -68.3996 138° Southeast  Level FlightAware Approximate
03:14AM -0.9252 -68.3115 138° Southeast  Level FlightAware Approximate
03:15AM -1.0242 -68.2234 138° Southeast  Level FlightAware Approximate
03:16AM -1.1231 -68.1353 138° Southeast  Level FlightAware Approximate
03:17AM -1.2220 -68.0472 138° Southeast  Level FlightAware Approximate
03:18AM -1.3209 -67.9591 138° Southeast  Level FlightAware Approximate
03:19AM -1.4198 -67.8710 138° Southeast  Level FlightAware Approximate
03:20AM -1.5187 -67.7828 138° Southeast  Level FlightAware Approximate
03:21AM -1.6176 -67.6947 138° Southeast  Level FlightAware Approximate
03:22AM -1.7165 -67.6066 138° Southeast  Level FlightAware Approximate
03:23AM -1.8154 -67.5184 138° Southeast  Level FlightAware Approximate
03:24AM -1.9143 -67.4303 138° Southeast  Level FlightAware Approximate
03:25AM -2.0132 -67.3421 138° Southeast  Level FlightAware Approximate
03:26AM -2.1121 -67.2539 138° Southeast  Level FlightAware Approximate
03:27AM -2.2110 -67.1657 138° Southeast  Level FlightAware Approximate
03:28AM -2.3098 -67.0775 138° Southeast  Level FlightAware Approximate
03:29AM -2.4087 -66.9893 138° Southeast  Level FlightAware Approximate
03:30AM -2.5076 -66.9011 138° Southeast  Level FlightAware Approximate
03:31AM -2.6064 -66.8128 138° Southeast  Level FlightAware Approximate
03:32AM -2.7053 -66.7246 138° Southeast  Level FlightAware Approximate
03:33AM -2.8041 -66.6363 138° Southeast  Level FlightAware Approximate
03:34AM -2.9030 -66.5480 138° Southeast  Level FlightAware Approximate
03:35AM -3.0018 -66.4597 138° Southeast  Level FlightAware Approximate
03:36AM -3.1006 -66.3714 138° Southeast  Level FlightAware Approximate
03:37AM -3.1994 -66.2831 138° Southeast  Level FlightAware Approximate
03:38AM -3.2982 -66.1947 138° Southeast  Level FlightAware Approximate
03:39AM -3.3970 -66.1063 138° Southeast  Level FlightAware Approximate
03:40AM -3.4958 -66.0180 138° Southeast  Level FlightAware Approximate
03:41AM -3.5946 -65.9296 138° Southeast  Level FlightAware Approximate
03:42AM -3.6934 -65.8411 138° Southeast  Level FlightAware Approximate
03:43AM -3.7922 -65.7527 138° Southeast  Level FlightAware Approximate
03:44AM -3.8909 -65.6642 138° Southeast  Level FlightAware Approximate
03:45AM -3.9897 -65.5758 138° Southeast  Level FlightAware Approximate
03:46AM -4.0884 -65.4872 138° Southeast  Level FlightAware Approximate
03:47AM -4.1871 -65.3987 138° Southeast  Level FlightAware Approximate
03:48AM -4.2859 -65.3102 138° Southeast  Level FlightAware Approximate
03:49AM -4.3846 -65.2216 138° Southeast  Level FlightAware Approximate
03:50AM -4.4833 -65.1330 138° Southeast  Level FlightAware Approximate
03:51AM -4.5820 -65.0444 138° Southeast  Level FlightAware Approximate
03:52AM -4.6806 -64.9557 138° Southeast  Level FlightAware Approximate
03:53AM -4.7793 -64.8671 138° Southeast  Level FlightAware Approximate
03:54AM -4.8779 -64.7784 138° Southeast  Level FlightAware Approximate
03:55AM -4.9766 -64.6897 138° Southeast  Level FlightAware Approximate
03:56AM -5.0752 -64.6009 138° Southeast  Level FlightAware Approximate
03:57AM -5.1738 -64.5121 138° Southeast  Level FlightAware Approximate
03:58AM -5.2724 -64.4233 138° Southeast  Level FlightAware Approximate
03:59AM -5.3710 -64.3345 138° Southeast  Level FlightAware Approximate
04:00AM -5.4696 -64.2456 138° Southeast  Level FlightAware Approximate
04:01AM -5.5682 -64.1568 138° Southeast  Level FlightAware Approximate
04:02AM -5.6667 -64.0678 138° Southeast  Level FlightAware Approximate
04:03AM -5.7653 -63.9789 138° Southeast  Level FlightAware Approximate
04:04AM -5.8638 -63.8899 138° Southeast  Level FlightAware Approximate
04:05AM -5.9623 -63.8009 138° Southeast  Level FlightAware Approximate
04:06AM -6.0608 -63.7118 138° Southeast  Level FlightAware Approximate
04:07AM -6.1593 -63.6228 138° Southeast  Level FlightAware Approximate
04:08AM -6.2578 -63.5337 138° Southeast  Level FlightAware Approximate
04:09AM -6.3562 -63.4445 138° Southeast  Level FlightAware Approximate
04:10AM -6.4546 -63.3553 138° Southeast  Level FlightAware Approximate
04:11AM -6.5531 -63.2661 138° Southeast  Level FlightAware Approximate
04:12AM -6.6515 -63.1769 138° Southeast  Level FlightAware Approximate
04:13AM -6.7499 -63.0876 138° Southeast  Level FlightAware Approximate
04:14AM -6.8482 -62.9983 138° Southeast  Level FlightAware Approximate
04:15AM -6.9466 -62.9089 138° Southeast  Level FlightAware Approximate
04:16AM -7.0449 -62.8195 138° Southeast  Level FlightAware Approximate
04:17AM -7.1433 -62.7301 138° Southeast  Level FlightAware Approximate
04:18AM -7.2416 -62.6406 138° Southeast  Level FlightAware Approximate
04:19AM -7.3399 -62.5511 138° Southeast  Level FlightAware Approximate
04:20AM -7.4381 -62.4616 138° Southeast  Level FlightAware Approximate
04:21AM -7.5364 -62.3720 138° Southeast  Level FlightAware Approximate
04:22AM -7.6346 -62.2823 138° Southeast  Level FlightAware Approximate
04:23AM -7.7328 -62.1927 138° Southeast  Level FlightAware Approximate
04:24AM -7.8310 -62.1030 138° Southeast  Level FlightAware Approximate
04:25AM -7.9292 -62.0132 138° Southeast  Level FlightAware Approximate
04:26AM -8.0274 -61.9234 138° Southeast  Level FlightAware Approximate
04:27AM -8.1255 -61.8336 138° Southeast  Level FlightAware Approximate
04:28AM -8.2236 -61.7437 138° Southeast  Level FlightAware Approximate
04:29AM -8.3217 -61.6538 138° Southeast  Level FlightAware Approximate
04:30AM -8.4195 -61.5641 138° Southeast  Level FlightAware Approximate
04:31AM -8.5172 -61.4744 138° Southeast  Level FlightAware Approximate
04:32AM -8.6149 -61.3847 138° Southeast  Level FlightAware Approximate
04:33AM -8.7125 -61.2949 138° Southeast  Level FlightAware Approximate
04:34AM -8.8102 -61.2050 138° Southeast  Level FlightAware Approximate
04:35AM -8.9078 -61.1151 138° Southeast  Level FlightAware Approximate
04:36AM -9.0054 -61.0252 138° Southeast  Level FlightAware Approximate
04:37AM -9.1030 -60.9352 138° Southeast  Level FlightAware Approximate
04:38AM -9.2006 -60.8452 138° Southeast  Level FlightAware Approximate
04:39AM -9.2981 -60.7551 138° Southeast  Level FlightAware Approximate
04:40AM -9.3956 -60.6650 138° Southeast  Level FlightAware Approximate
04:41AM -9.4931 -60.5748 138° Southeast  Level FlightAware Approximate
04:42AM -9.5906 -60.4846 138° Southeast  Level FlightAware Approximate
04:43AM -9.6881 -60.3943 138° Southeast  Level FlightAware Approximate
04:44AM -9.7855 -60.3039 138° Southeast  Level FlightAware Approximate
04:45AM -9.8829 -60.2136 138° Southeast  Level FlightAware Approximate
04:46AM -9.9803 -60.1231 138° Southeast  Level FlightAware Approximate
04:47AM -10.0776 -60.0326 138° Southeast  Level FlightAware Approximate
04:48AM -10.1749 -59.9421 138° Southeast  Level FlightAware Approximate
04:49AM -10.2723 -59.8514 138° Southeast  Level FlightAware Approximate
04:50AM -10.3695 -59.7608 137° Southeast  Level FlightAware Approximate
04:51AM -10.4668 -59.6701 137° Southeast  Level FlightAware Approximate
04:52AM -10.5640 -59.5793 137° Southeast  Level FlightAware Approximate
04:53AM -10.6612 -59.4884 137° Southeast  Level FlightAware Approximate
04:54AM -10.7584 -59.3975 137° Southeast  Level FlightAware Approximate
04:55AM -10.8555 -59.3066 137° Southeast  Level FlightAware Approximate
04:56AM -10.9527 -59.2156 137° Southeast  Level FlightAware Approximate
04:57AM -11.0498 -59.1245 137° Southeast  Level FlightAware Approximate
04:58AM -11.1470 -59.0332 137° Southeast  Level FlightAware Approximate
04:59AM -11.2442 -58.9419 137° Southeast  Level FlightAware Approximate
05:00AM -11.3414 -58.8504 137° Southeast  Level FlightAware Approximate
05:01AM -11.4386 -58.7590 137° Southeast  Level FlightAware Approximate
05:02AM -11.5357 -58.6674 137° Southeast  Level FlightAware Approximate
05:03AM -11.6328 -58.5758 137° Southeast  Level FlightAware Approximate
05:04AM -11.7299 -58.4842 137° Southeast  Level FlightAware Approximate
05:05AM -11.8269 -58.3924 137° Southeast  Level FlightAware Approximate
05:06AM -11.9239 -58.3006 137° Southeast  Level FlightAware Approximate
05:07AM -12.0209 -58.2088 137° Southeast  Level FlightAware Approximate
05:08AM -12.1178 -58.1168 137° Southeast  Level FlightAware Approximate
05:09AM -12.2148 -58.0248 137° Southeast  Level FlightAware Approximate
05:10AM -12.3117 -57.9328 137° Southeast  Level FlightAware Approximate
05:11AM -12.4085 -57.8406 137° Southeast  Level FlightAware Approximate
05:12AM -12.5053 -57.7485 137° Southeast  Level FlightAware Approximate
05:13AM -12.6021 -57.6562 137° Southeast  Level FlightAware Approximate
05:14AM -12.6989 -57.5638 137° Southeast  Level FlightAware Approximate
05:15AM -12.7956 -57.4714 137° Southeast  Level FlightAware Approximate
05:16AM -12.8924 -57.3789 137° Southeast  Level FlightAware Approximate
05:17AM -12.9890 -57.2864 137° Southeast  Level FlightAware Approximate
05:18AM -13.0857 -57.1938 137° Southeast  Level FlightAware Approximate
05:19AM -13.1823 -57.1011 137° Southeast  Level FlightAware Approximate
05:20AM -13.2788 -57.0083 137° Southeast  Level FlightAware Approximate
05:21AM -13.3754 -56.9155 137° Southeast  Level FlightAware Approximate
05:22AM -13.4719 -56.8226 137° Southeast  Level FlightAware Approximate
05:23AM -13.5683 -56.7296 137° Southeast  Level FlightAware Approximate
05:24AM -13.6648 -56.6365 137° Southeast  Level FlightAware Approximate
05:25AM -13.7612 -56.5434 137° Southeast  Level FlightAware Approximate
05:26AM -13.8575 -56.4501 137° Southeast  Level FlightAware Approximate
05:27AM -13.9539 -56.3568 137° Southeast  Level FlightAware Approximate
05:28AM -14.0502 -56.2635 137° Southeast  Level FlightAware Approximate
05:29AM -14.1464 -56.1700 137° Southeast  Level FlightAware Approximate
05:30AM -14.2427 -56.0765 137° Southeast  Level FlightAware Approximate
05:31AM -14.3388 -55.9828 137° Southeast  Level FlightAware Approximate
05:32AM -14.4350 -55.8891 137° Southeast  Level FlightAware Approximate
05:33AM -14.5311 -55.7954 137° Southeast  Level FlightAware Approximate
05:34AM -14.6272 -55.7015 137° Southeast  Level FlightAware Approximate
05:35AM -14.7232 -55.6076 137° Southeast  Level FlightAware Approximate
05:36AM -14.8192 -55.5135 137° Southeast  Level FlightAware Approximate
05:37AM -14.9152 -55.4194 137° Southeast  Level FlightAware Approximate
05:38AM -15.0111 -55.3252 137° Southeast  Level FlightAware Approximate
05:39AM -15.1070 -55.2310 136° Southeast  Level FlightAware Approximate
05:40AM -15.2028 -55.1366 136° Southeast  Level FlightAware Approximate
05:41AM -15.2986 -55.0422 136° Southeast  Level FlightAware Approximate
05:42AM -15.3944 -54.9476 136° Southeast  Level FlightAware Approximate
05:43AM -15.4901 -54.8530 136° Southeast  Level FlightAware Approximate
05:44AM -15.5858 -54.7583 136° Southeast  Level FlightAware Approximate
05:45AM -15.6815 -54.6635 136° Southeast  Level FlightAware Approximate
05:46AM -15.7771 -54.5686 136° Southeast  Level FlightAware Approximate
05:47AM -15.8726 -54.4737 136° Southeast  Level FlightAware Approximate
05:48AM -15.9681 -54.3786 136° Southeast  Level FlightAware Approximate
05:49AM -16.0636 -54.2835 136° Southeast  Level FlightAware Approximate
05:50AM -16.1591 -54.1882 136° Southeast  Level FlightAware Approximate
05:51AM -16.2545 -54.0929 136° Southeast  Level FlightAware Approximate
05:52AM -16.3498 -53.9974 136° Southeast  Level FlightAware Approximate
05:53AM -16.4451 -53.9019 136° Southeast  Level FlightAware Approximate
05:54AM -16.5404 -53.8063 136° Southeast  Level FlightAware Approximate
05:55AM -16.6356 -53.7106 136° Southeast  Level FlightAware Approximate
05:56AM -16.7308 -53.6148 136° Southeast  Level FlightAware Approximate
05:57AM -16.8259 -53.5189 136° Southeast  Level FlightAware Approximate
05:58AM -16.9210 -53.4229 136° Southeast  Level FlightAware Approximate
05:59AM -17.0161 -53.3268 136° Southeast  Level FlightAware Approximate
06:00AM -17.1111 -53.2306 136° Southeast  Level FlightAware Approximate
06:01AM -17.2060 -53.1343 136° Southeast  Level FlightAware Approximate
06:02AM -17.3009 -53.0379 136° Southeast  Level FlightAware Approximate
06:03AM -17.3958 -52.9414 136° Southeast  Level FlightAware Approximate
06:04AM -17.4906 -52.8448 136° Southeast  Level FlightAware Approximate
06:05AM -17.5854 -52.7481 136° Southeast  Level FlightAware Approximate
06:06AM -17.6801 -52.6513 136° Southeast  Level FlightAware Approximate
06:07AM -17.7748 -52.5545 136° Southeast  Level FlightAware Approximate
06:08AM -17.8694 -52.4575 136° Southeast  Level FlightAware Approximate
06:09AM -17.9640 -52.3604 136° Southeast  Level FlightAware Approximate
06:10AM -18.0585 -52.2632 136° Southeast  Level FlightAware Approximate
06:11AM -18.1530 -52.1659 136° Southeast  Level FlightAware Approximate
06:12AM -18.2474 -52.0684 136° Southeast  Level FlightAware Approximate
06:13AM -18.3418 -51.9709 136° Southeast  Level FlightAware Approximate
06:14AM -18.4361 -51.8733 136° Southeast  Level FlightAware Approximate
06:15AM -18.5304 -51.7756 136° Southeast  Level FlightAware Approximate
06:16AM -18.6246 -51.6777 135° Southeast  Level FlightAware Approximate
06:17AM -18.7188 -51.5798 135° Southeast  Level FlightAware Approximate
06:18AM -18.8130 -51.4817 135° Southeast  Level FlightAware Approximate
06:19AM -18.9070 -51.3835 135° Southeast  Level FlightAware Approximate
06:20AM -19.0011 -51.2853 135° Southeast  Level FlightAware Approximate
06:21AM -19.0950 -51.1869 135° Southeast  Level FlightAware Approximate
06:22AM -19.1890 -51.0884 135° Southeast  Level FlightAware Approximate
06:23AM -19.2828 -50.9898 135° Southeast  Level FlightAware Approximate
06:24AM -19.3767 -50.8910 135° Southeast  Level FlightAware Approximate
06:25AM -19.4704 -50.7922 135° Southeast  Level FlightAware Approximate
06:26AM -19.5641 -50.6932 135° Southeast  Level FlightAware Approximate
06:27AM -19.6578 -50.5942 135° Southeast  Level FlightAware Approximate
06:28AM -19.7514 -50.4950 135° Southeast  Level FlightAware Approximate
06:29AM -19.8450 -50.3957 135° Southeast  Level FlightAware Approximate
06:30AM -19.9385 -50.2962 135° Southeast  Level FlightAware Approximate
06:31AM -20.0319 -50.1967 135° Southeast  Level FlightAware Approximate
06:32AM -20.1253 -50.0970 135° Southeast  Level FlightAware Approximate
06:33AM -20.2186 -49.9973 135° Southeast  Level FlightAware Approximate
06:34AM -20.3119 -49.8974 135° Southeast  Level FlightAware Approximate
06:35AM -20.4051 -49.7974 135° Southeast  Level FlightAware Approximate
06:36AM -20.4983 -49.6972 135° Southeast  Level FlightAware Approximate
06:37AM -20.5914 -49.5970 135° Southeast  Level FlightAware Approximate
06:38AM -20.6844 -49.4966 135° Southeast  Level FlightAware Approximate
06:39AM -20.7774 -49.3961 135° Southeast  Level FlightAware Approximate
06:40AM -20.8703 -49.2955 135° Southeast  Level FlightAware Approximate
06:41AM -20.9632 -49.1947 135° Southeast  Level FlightAware Approximate
06:42AM -21.0560 -49.0938 135° Southeast  Level FlightAware Approximate
06:43AM -21.1487 -48.9928 135° Southeast  Level FlightAware Approximate
06:44AM -21.2414 -48.8917 135° Southeast  Level FlightAware Approximate
06:45AM -21.3341 -48.7904 134° Southeast  Level FlightAware Approximate
06:46AM -21.4266 -48.6891 134° Southeast  Level FlightAware Approximate
06:47AM -21.5191 -48.5876 134° Southeast  Level FlightAware Approximate
06:48AM -21.6116 -48.4859 134° Southeast  Level FlightAware Approximate
06:49AM -21.7040 -48.3841 134° Southeast  Level FlightAware Approximate
06:50AM -21.7986 -48.2848 137° Southeast  Level FlightAware Approximate
06:51AM -21.8896 -48.1822 126° Southeast  Level FlightAware Approximate
06:52AM -21.9812 -48.0798 135° Southeast  Level FlightAware Approximate
06:53AM -22.0750 -47.9793 135° Southeast  Level FlightAware Approximate
06:54AM -22.1625 -47.8729 126° Southeast  Level FlightAware Approximate
06:55AM -22.2548 -47.7707 135° Southeast  Level FlightAware Approximate
06:56AM -22.3478 -47.6691 135° Southeast  Level FlightAware Approximate
06:57AM -22.4401 -47.5667 134° Southeast  Level FlightAware Approximate
06:58AM -22.5323 -47.4642 134° Southeast  Level FlightAware Approximate
06:59AM -22.6246 -47.3616 134° Southeast  Level FlightAware Approximate
07:00AM -22.7156 -47.2577 133° Southeast  Level FlightAware Approximate
07:01AM -22.8062 -47.1533 133° Southeast  Level FlightAware Approximate
07:02AM -22.8969 -47.0488 134° Southeast  Level FlightAware Approximate
07:03AM -22.9880 -46.9448 134° Southeast  Level FlightAware Approximate
07:04AM -23.0805 -46.8421 134° Southeast  Level FlightAware Approximate